sensor_id;sensor_type;location;lat;lon;timestamp;pressure;altitude;pressure_sealevel;temperature;humidity
51243;BME280;37812;47.556;18.718;2022-08-20T00:01:44;99154.91;;;20.58;100.00
51243;BME280;37812;47.556;18.718;2022-08-20T00:04:11;99148.66;;;20.66;100.00
51243;BME280;37812;47.556;18.718;2022-08-20T00:06:37;99162.47;;;20.80;100.00
51243;BME280;37812;47.556;18.718;2022-08-20T00:09:05;99174.72;;;20.81;100.00
51243;BME280;37812;47.556;18.718;2022-08-20T00:11:32;99177.41;;;20.77;100.00
51243;BME280;37812;47.556;18.718;2022-08-20T00:14:01;99173.13;;;20.71;100.00
51243;BME280;37812;47.556;18.718;2022-08-20T00:16:32;99173.22;;;20.65;100.00
51243;BME280;37812;47.556;18.718;2022-08-20T00:18:59;99166.56;;;20.31;100.00
51243;BME280;37812;47.556;18.718;2022-08-20T00:21:26;99168.53;;;20.13;100.00
51243;BME280;37812;47.556;18.718;2022-08-20T00:23:54;99179.25;;;19.95;100.00
51243;BME280;37812;47.556;18.718;2022-08-20T00:26:22;99174.72;;;20.09;100.00
51243;BME280;37812;47.556;18.718;2022-08-20T00:28:48;99182.38;;;20.27;100.00
51243;BME280;37812;47.556;18.718;2022-08-20T00:31:17;99183.97;;;20.44;100.00
51243;BME280;37812;47.556;18.718;2022-08-20T00:33:47;99188.41;;;20.37;100.00
51243;BME280;37812;47.556;18.718;2022-08-20T00:36:14;99194.94;;;20.03;100.00
51243;BME280;37812;47.556;18.718;2022-08-20T00:38:43;99200.16;;;20.01;100.00
51243;BME280;37812;47.556;18.718;2022-08-20T00:41:14;99191.53;;;19.90;100.00
51243;BME280;37812;47.556;18.718;2022-08-20T00:43:44;99200.41;;;19.80;100.00
51243;BME280;37812;47.556;18.718;2022-08-20T00:46:22;99211.06;;;19.58;100.00
51243;BME280;37812;47.556;18.718;2022-08-20T00:48:51;99211.97;;;19.51;100.00
51243;BME280;37812;47.556;18.718;2022-08-20T00:51:39;99212.72;;;19.68;100.00
51243;BME280;37812;47.556;18.718;2022-08-20T00:54:23;99212.62;;;19.81;100.00
51243;BME280;37812;47.556;18.718;2022-08-20T00:56:55;99210.13;;;19.67;100.00
51243;BME280;37812;47.556;18.718;2022-08-20T00:59:26;99216.19;;;19.70;100.00
51243;BME280;37812;47.556;18.718;2022-08-20T01:01:52;99200.44;;;19.74;100.00
51243;BME280;37812;47.556;18.718;2022-08-20T01:04:18;99202.94;;;19.87;100.00
51243;BME280;37812;47.556;18.718;2022-08-20T01:06:44;99216.00;;;19.92;100.00
51243;BME280;37812;47.556;18.718;2022-08-20T01:09:10;99224.72;;;19.97;100.00
51243;BME280;37812;47.556;18.718;2022-08-20T01:11:37;99207.16;;;20.05;100.00
51243;BME280;37812;47.556;18.718;2022-08-20T01:14:12;99204.44;;;20.13;100.00
51243;BME280;37812;47.556;18.718;2022-08-20T01:17:05;99192.25;;;20.06;100.00
51243;BME280;37812;47.556;18.718;2022-08-20T01:19:37;99194.09;;;19.97;100.00
51243;BME280;37812;47.556;18.718;2022-08-20T01:22:05;99186.13;;;20.05;100.00
51243;BME280;37812;47.556;18.718;2022-08-20T01:25:00;99186.00;;;20.16;100.00
51243;BME280;37812;47.556;18.718;2022-08-20T01:27:30;99183.31;;;20.22;100.00
51243;BME280;37812;47.556;18.718;2022-08-20T01:29:57;99170.16;;;20.25;100.00
51243;BME280;37812;47.556;18.718;2022-08-20T01:32:23;99163.16;;;20.25;100.00
51243;BME280;37812;47.556;18.718;2022-08-20T01:34:49;99168.31;;;20.32;100.00
51243;BME280;37812;47.556;18.718;2022-08-20T01:37:15;99164.72;;;20.39;100.00
51243;BME280;37812;47.556;18.718;2022-08-20T01:39:41;99154.19;;;20.42;100.00
51243;BME280;37812;47.556;18.718;2022-08-20T01:44:36;99140.41;;;20.24;100.00
51243;BME280;37812;47.556;18.718;2022-08-20T01:49:34;99145.72;;;20.18;100.00
51243;BME280;37812;47.556;18.718;2022-08-20T01:52:05;99166.78;;;20.12;100.00
51243;BME280;37812;47.556;18.718;2022-08-20T01:54:33;99160.69;;;20.10;100.00
51243;BME280;37812;47.556;18.718;2022-08-20T01:57:12;99164.22;;;20.09;100.00
51243;BME280;37812;47.556;18.718;2022-08-20T01:59:39;99152.97;;;19.93;100.00
51243;BME280;37812;47.556;18.718;2022-08-20T02:02:06;99154.78;;;19.90;100.00
51243;BME280;37812;47.556;18.718;2022-08-20T02:04:32;99149.56;;;19.87;100.00
51243;BME280;37812;47.556;18.718;2022-08-20T02:07:00;99151.31;;;19.85;100.00
51243;BME280;37812;47.556;18.718;2022-08-20T02:09:34;99146.87;;;19.91;100.00
51243;BME280;37812;47.556;18.718;2022-08-20T02:12:01;99140.75;;;19.94;100.00
51243;BME280;37812;47.556;18.718;2022-08-20T02:14:31;99133.72;;;19.96;100.00
51243;BME280;37812;47.556;18.718;2022-08-20T02:16:58;99128.41;;;19.99;100.00
51243;BME280;37812;47.556;18.718;2022-08-20T02:19:34;99129.28;;;20.03;100.00
51243;BME280;37812;47.556;18.718;2022-08-20T02:22:10;99137.94;;;20.09;100.00
51243;BME280;37812;47.556;18.718;2022-08-20T02:24:38;99138.00;;;20.05;100.00
51243;BME280;37812;47.556;18.718;2022-08-20T02:27:04;99138.81;;;20.08;100.00
51243;BME280;37812;47.556;18.718;2022-08-20T02:29:30;99133.66;;;19.99;100.00
51243;BME280;37812;47.556;18.718;2022-08-20T02:31:56;99130.13;;;20.03;100.00
51243;BME280;37812;47.556;18.718;2022-08-20T02:34:22;99138.91;;;19.99;100.00
51243;BME280;37812;47.556;18.718;2022-08-20T02:36:48;99148.59;;;19.95;100.00
51243;BME280;37812;47.556;18.718;2022-08-20T02:39:15;99163.69;;;19.70;100.00
51243;BME280;37812;47.556;18.718;2022-08-20T02:41:41;99179.53;;;19.61;100.00
51243;BME280;37812;47.556;18.718;2022-08-20T02:44:07;99187.38;;;19.67;100.00
51243;BME280;37812;47.556;18.718;2022-08-20T02:46:34;99191.69;;;19.75;100.00
51243;BME280;37812;47.556;18.718;2022-08-20T02:49:00;99170.47;;;19.96;100.00
51243;BME280;37812;47.556;18.718;2022-08-20T02:51:26;99166.97;;;19.97;100.00
51243;BME280;37812;47.556;18.718;2022-08-20T02:53:52;99165.34;;;19.84;100.00
51243;BME280;37812;47.556;18.718;2022-08-20T02:56:18;99170.59;;;19.82;100.00
51243;BME280;37812;47.556;18.718;2022-08-20T02:58:45;99168.84;;;19.83;100.00
51243;BME280;37812;47.556;18.718;2022-08-20T03:01:13;99182.81;;;19.85;100.00
51243;BME280;37812;47.556;18.718;2022-08-20T03:03:40;99193.28;;;19.91;100.00
51243;BME280;37812;47.556;18.718;2022-08-20T03:06:09;99216.19;;;19.75;100.00
51243;BME280;37812;47.556;18.718;2022-08-20T03:08:35;99226.81;;;19.58;100.00
51243;BME280;37812;47.556;18.718;2022-08-20T03:11:02;99241.63;;;19.65;100.00
51243;BME280;37812;47.556;18.718;2022-08-20T03:13:28;99261.72;;;19.69;100.00
51243;BME280;37812;47.556;18.718;2022-08-20T03:15:56;99270.47;;;19.68;100.00
51243;BME280;37812;47.556;18.718;2022-08-20T03:18:26;99270.47;;;19.71;100.00
51243;BME280;37812;47.556;18.718;2022-08-20T03:20:52;99274.06;;;19.58;100.00
51243;BME280;37812;47.556;18.718;2022-08-20T03:23:20;99260.91;;;19.60;100.00
51243;BME280;37812;47.556;18.718;2022-08-20T03:25:46;99268.81;;;19.58;100.00
51243;BME280;37812;47.556;18.718;2022-08-20T03:28:13;99283.72;;;19.45;100.00
51243;BME280;37812;47.556;18.718;2022-08-20T03:30:40;99284.66;;;19.37;100.00
51243;BME280;37812;47.556;18.718;2022-08-20T03:33:06;99294.25;;;19.38;100.00
51243;BME280;37812;47.556;18.718;2022-08-20T03:35:36;99295.13;;;19.43;100.00
51243;BME280;37812;47.556;18.718;2022-08-20T03:38:06;99291.50;;;19.62;100.00
51243;BME280;37812;47.556;18.718;2022-08-20T03:40:33;99295.06;;;19.55;100.00
51243;BME280;37812;47.556;18.718;2022-08-20T03:43:00;99276.66;;;19.61;100.00
51243;BME280;37812;47.556;18.718;2022-08-20T03:45:27;99280.03;;;19.77;100.00
51243;BME280;37812;47.556;18.718;2022-08-20T03:47:55;99277.41;;;19.76;100.00
51243;BME280;37812;47.556;18.718;2022-08-20T03:50:25;99255.50;;;19.81;100.00
51243;BME280;37812;47.556;18.718;2022-08-20T03:52:52;99259.94;;;19.75;100.00
51243;BME280;37812;47.556;18.718;2022-08-20T03:55:20;99251.16;;;19.79;100.00
51243;BME280;37812;47.556;18.718;2022-08-20T03:57:49;99250.25;;;19.81;100.00
51243;BME280;37812;47.556;18.718;2022-08-20T04:00:22;99237.97;;;19.83;100.00
51243;BME280;37812;47.556;18.718;2022-08-20T04:02:48;99234.53;;;19.77;100.00
51243;BME280;37812;47.556;18.718;2022-08-20T04:05:14;99247.69;;;19.74;100.00
51243;BME280;37812;47.556;18.718;2022-08-20T04:07:40;99252.03;;;19.78;100.00
51243;BME280;37812;47.556;18.718;2022-08-20T04:10:08;99238.87;;;19.81;100.00
51243;BME280;37812;47.556;18.718;2022-08-20T04:12:36;99252.91;;;19.80;100.00
51243;BME280;37812;47.556;18.718;2022-08-20T04:15:16;99249.41;;;19.78;100.00
51243;BME280;37812;47.556;18.718;2022-08-20T04:17:45;99257.41;;;19.64;100.00
51243;BME280;37812;47.556;18.718;2022-08-20T04:20:14;99258.31;;;19.52;100.00
51243;BME280;37812;47.556;18.718;2022-08-20T04:22:40;99254.81;;;19.59;100.00
51243;BME280;37812;47.556;18.718;2022-08-20T04:25:06;99244.31;;;19.56;100.00
51243;BME280;37812;47.556;18.718;2022-08-20T04:27:36;99241.66;;;19.61;100.00
51243;BME280;37812;47.556;18.718;2022-08-20T04:30:05;99240.72;;;19.69;100.00
51243;BME280;37812;47.556;18.718;2022-08-20T04:32:31;99235.41;;;19.76;100.00
51243;BME280;37812;47.556;18.718;2022-08-20T04:34:57;99224.06;;;19.74;100.00
51243;BME280;37812;47.556;18.718;2022-08-20T04:37:23;99230.38;;;19.48;100.00
51243;BME280;37812;47.556;18.718;2022-08-20T04:39:49;99244.38;;;19.44;100.00
51243;BME280;37812;47.556;18.718;2022-08-20T04:42:37;99248.75;;;19.48;100.00
51243;BME280;37812;47.556;18.718;2022-08-20T04:45:04;99246.91;;;19.64;100.00
51243;BME280;37812;47.556;18.718;2022-08-20T04:47:32;99238.00;;;19.80;100.00
51243;BME280;37812;47.556;18.718;2022-08-20T04:49:58;99227.34;;;19.97;100.00
51243;BME280;37812;47.556;18.718;2022-08-20T04:52:27;99231.66;;;20.04;100.00
51243;BME280;37812;47.556;18.718;2022-08-20T04:54:53;99231.63;;;20.07;100.00
51243;BME280;37812;47.556;18.718;2022-08-20T04:57:24;99229.88;;;20.06;100.00
51243;BME280;37812;47.556;18.718;2022-08-20T04:59:54;99226.38;;;20.10;100.00
51243;BME280;37812;47.556;18.718;2022-08-20T05:02:21;99228.94;;;20.13;100.00
51243;BME280;37812;47.556;18.718;2022-08-20T05:04:47;99214.91;;;20.14;100.00
51243;BME280;37812;47.556;18.718;2022-08-20T05:07:15;99203.53;;;20.15;100.00
51243;BME280;37812;47.556;18.718;2022-08-20T05:09:44;99205.19;;;20.25;100.00
51243;BME280;37812;47.556;18.718;2022-08-20T05:12:10;99232.16;;;20.41;100.00
51243;BME280;37812;47.556;18.718;2022-08-20T05:14:38;99259.56;;;20.14;100.00
51243;BME280;37812;47.556;18.718;2022-08-20T05:17:04;99271.06;;;20.04;100.00
51243;BME280;37812;47.556;18.718;2022-08-20T05:19:31;99271.81;;;20.18;100.00
51243;BME280;37812;47.556;18.718;2022-08-20T05:21:58;99268.09;;;20.38;100.00
51243;BME280;37812;47.556;18.718;2022-08-20T05:24:24;99271.66;;;20.34;100.00
51243;BME280;37812;47.556;18.718;2022-08-20T05:26:50;99265.47;;;20.41;100.00
51243;BME280;37812;47.556;18.718;2022-08-20T05:29:16;99255.75;;;20.49;100.00
51243;BME280;37812;47.556;18.718;2022-08-20T05:31:42;99241.72;;;20.50;100.00
51243;BME280;37812;47.556;18.718;2022-08-20T05:34:10;99237.31;;;20.55;100.00
51243;BME280;37812;47.556;18.718;2022-08-20T05:36:49;99245.06;;;20.64;100.00
51243;BME280;37812;47.556;18.718;2022-08-20T05:39:20;99252.03;;;20.68;100.00
51243;BME280;37812;47.556;18.718;2022-08-20T05:41:46;99258.75;;;20.91;100.00
51243;BME280;37812;47.556;18.718;2022-08-20T05:44:17;99256.06;;;20.97;100.00
51243;BME280;37812;47.556;18.718;2022-08-20T05:46:44;99252.78;;;20.79;100.00
51243;BME280;37812;47.556;18.718;2022-08-20T05:49:15;99247.50;;;20.81;100.00
51243;BME280;37812;47.556;18.718;2022-08-20T05:51:42;99245.38;;;21.07;100.00
51243;BME280;37812;47.556;18.718;2022-08-20T05:54:08;99247.63;;;21.36;100.00
51243;BME280;37812;47.556;18.718;2022-08-20T05:56:34;99241.09;;;21.62;100.00
51243;BME280;37812;47.556;18.718;2022-08-20T05:59:00;99241.22;;;21.56;100.00
51243;BME280;37812;47.556;18.718;2022-08-20T06:01:31;99247.41;;;21.52;100.00
51243;BME280;37812;47.556;18.718;2022-08-20T06:03:57;99238.59;;;21.56;100.00
51243;BME280;37812;47.556;18.718;2022-08-20T06:06:42;99241.09;;;21.62;100.00
51243;BME280;37812;47.556;18.718;2022-08-20T06:09:08;99232.44;;;21.55;100.00
51243;BME280;37812;47.556;18.718;2022-08-20T06:11:34;99231.28;;;21.73;100.00
51243;BME280;37812;47.556;18.718;2022-08-20T06:14:00;99232.19;;;21.72;100.00
51243;BME280;37812;47.556;18.718;2022-08-20T06:16:27;99242.00;;;21.61;100.00
51243;BME280;37812;47.556;18.718;2022-08-20T06:18:53;99247.41;;;21.52;100.00
51243;BME280;37812;47.556;18.718;2022-08-20T06:21:19;99243.50;;;21.19;100.00
51243;BME280;37812;47.556;18.718;2022-08-20T06:23:45;99256.25;;;21.48;100.00
51243;BME280;37812;47.556;18.718;2022-08-20T06:26:11;99255.72;;;21.81;100.00
51243;BME280;37812;47.556;18.718;2022-08-20T06:28:37;99259.28;;;21.77;100.00
51243;BME280;37812;47.556;18.718;2022-08-20T06:31:03;99263.44;;;21.36;100.00
51243;BME280;37812;47.556;18.718;2022-08-20T06:33:29;99271.81;;;21.63;100.00
51243;BME280;37812;47.556;18.718;2022-08-20T06:35:55;99302.31;;;21.13;100.00
51243;BME280;37812;47.556;18.718;2022-08-20T06:38:21;99302.31;;;21.13;100.00
51243;BME280;37812;47.556;18.718;2022-08-20T06:40:47;99311.25;;;21.01;100.00
51243;BME280;37812;47.556;18.718;2022-08-20T06:43:13;99311.94;;;21.17;100.00
51243;BME280;37812;47.556;18.718;2022-08-20T06:45:40;99315.47;;;21.13;100.00
51243;BME280;37812;47.556;18.718;2022-08-20T06:48:12;99303.88;;;21.29;100.00
51243;BME280;37812;47.556;18.718;2022-08-20T06:50:44;99289.63;;;21.46;100.00
51243;BME280;37812;47.556;18.718;2022-08-20T06:53:12;99293.75;;;21.62;100.00
51243;BME280;37812;47.556;18.718;2022-08-20T06:55:40;99296.53;;;21.53;100.00
51243;BME280;37812;47.556;18.718;2022-08-20T06:58:09;99289.31;;;21.67;100.00
51243;BME280;37812;47.556;18.718;2022-08-20T07:00:39;99291.78;;;21.78;99.57
51243;BME280;37812;47.556;18.718;2022-08-20T07:03:07;99291.72;;;21.81;98.56
51243;BME280;37812;47.556;18.718;2022-08-20T07:05:36;99307.81;;;21.61;99.89
51243;BME280;37812;47.556;18.718;2022-08-20T07:08:03;99320.91;;;21.67;99.51
51243;BME280;37812;47.556;18.718;2022-08-20T07:10:30;99320.63;;;21.85;100.00
51243;BME280;37812;47.556;18.718;2022-08-20T07:12:56;99328.31;;;21.98;99.45
51243;BME280;37812;47.556;18.718;2022-08-20T07:15:24;99341.41;;;22.04;99.45
51243;BME280;37812;47.556;18.718;2022-08-20T07:17:59;99330.81;;;22.10;99.31
51243;BME280;37812;47.556;18.718;2022-08-20T07:20:26;99330.81;;;22.10;100.00
51243;BME280;37812;47.556;18.718;2022-08-20T07:22:53;99325.59;;;22.04;100.00
51243;BME280;37812;47.556;18.718;2022-08-20T07:25:20;99331.03;;;21.95;99.77
51243;BME280;37812;47.556;18.718;2022-08-20T07:27:47;99356.50;;;21.32;100.00
51243;BME280;37812;47.556;18.718;2022-08-20T07:30:25;99363.59;;;21.21;100.00
51243;BME280;37812;47.556;18.718;2022-08-20T07:33:10;99379.56;;;21.06;100.00
51243;BME280;37812;47.556;18.718;2022-08-20T07:35:40;99391.84;;;21.07;100.00
51243;BME280;37812;47.556;18.718;2022-08-20T07:38:06;99406.72;;;21.08;100.00
51243;BME280;37812;47.556;18.718;2022-08-20T07:40:38;99411.12;;;21.09;100.00
51243;BME280;37812;47.556;18.718;2022-08-20T07:43:04;99416.28;;;21.15;100.00
51243;BME280;37812;47.556;18.718;2022-08-20T07:45:30;99427.78;;;21.06;100.00
51243;BME280;37812;47.556;18.718;2022-08-20T07:48:06;99431.50;;;20.87;100.00
51243;BME280;37812;47.556;18.718;2022-08-20T07:50:32;99445.88;;;20.49;100.00
51243;BME280;37812;47.556;18.718;2022-08-20T07:52:58;99439.56;;;20.67;100.00
51243;BME280;37812;47.556;18.718;2022-08-20T07:55:25;99438.75;;;20.64;100.00
51243;BME280;37812;47.556;18.718;2022-08-20T07:57:51;99432.75;;;20.48;100.00
51243;BME280;37812;47.556;18.718;2022-08-20T08:00:21;99429.25;;;20.46;100.00
51243;BME280;37812;47.556;18.718;2022-08-20T08:02:47;99417.97;;;20.28;100.00
51243;BME280;37812;47.556;18.718;2022-08-20T08:05:13;99424.16;;;20.21;100.00
51243;BME280;37812;47.556;18.718;2022-08-20T08:07:41;99418.03;;;20.21;100.00
51243;BME280;37812;47.556;18.718;2022-08-20T08:10:09;99418.84;;;20.27;100.00
51243;BME280;37812;47.556;18.718;2022-08-20T08:12:41;99413.63;;;20.26;100.00
51243;BME280;37812;47.556;18.718;2022-08-20T08:15:11;99408.41;;;20.15;100.00
51243;BME280;37812;47.556;18.718;2022-08-20T08:17:39;99408.56;;;19.97;100.00
51243;BME280;37812;47.556;18.718;2022-08-20T08:20:06;99415.53;;;20.01;100.00
51243;BME280;37812;47.556;18.718;2022-08-20T08:22:32;99417.28;;;20.02;100.00
51243;BME280;37812;47.556;18.718;2022-08-20T08:24:59;99413.66;;;20.18;100.00
51243;BME280;37812;47.556;18.718;2022-08-20T08:27:28;99421.56;;;20.18;100.00
51243;BME280;37812;47.556;18.718;2022-08-20T08:30:00;99432.91;;;20.25;100.00
51243;BME280;37812;47.556;18.718;2022-08-20T08:32:27;99424.06;;;20.34;100.00
51243;BME280;37812;47.556;18.718;2022-08-20T08:34:55;99422.25;;;20.39;100.00
51243;BME280;37812;47.556;18.718;2022-08-20T08:37:22;99424.06;;;20.34;100.00
51243;BME280;37812;47.556;18.718;2022-08-20T08:39:48;99412.75;;;20.25;100.00
51243;BME280;37812;47.556;18.718;2022-08-20T08:42:34;99410.12;;;20.25;100.00
51243;BME280;37812;47.556;18.718;2022-08-20T08:45:05;99392.63;;;20.21;100.00
51243;BME280;37812;47.556;18.718;2022-08-20T08:47:35;99378.59;;;20.25;100.00
51243;BME280;37812;47.556;18.718;2022-08-20T08:50:05;99388.28;;;20.19;100.00
51243;BME280;37812;47.556;18.718;2022-08-20T08:52:34;99399.69;;;20.13;100.00
51243;BME280;37812;47.556;18.718;2022-08-20T08:55:05;99403.28;;;20.03;100.00
51243;BME280;37812;47.556;18.718;2022-08-20T08:57:31;99410.38;;;19.89;100.00
51243;BME280;37812;47.556;18.718;2022-08-20T09:00:00;99431.44;;;19.80;100.00
51243;BME280;37812;47.556;18.718;2022-08-20T09:02:31;99441.94;;;19.74;100.00
51243;BME280;37812;47.556;18.718;2022-08-20T09:04:59;99440.19;;;19.76;100.00
51243;BME280;37812;47.556;18.718;2022-08-20T09:07:31;99417.41;;;19.78;100.00
51243;BME280;37812;47.556;18.718;2022-08-20T09:09:57;99406.13;;;19.65;100.00
51243;BME280;37812;47.556;18.718;2022-08-20T09:12:24;99396.53;;;19.59;100.00
51243;BME280;37812;47.556;18.718;2022-08-20T09:14:59;99388.66;;;19.56;100.00
51243;BME280;37812;47.556;18.718;2022-08-20T09:17:26;99391.41;;;19.16;100.00
51243;BME280;37812;47.556;18.718;2022-08-20T09:19:52;99390.56;;;19.13;100.00
51243;BME280;37812;47.556;18.718;2022-08-20T09:22:21;99386.19;;;19.20;100.00
51243;BME280;37812;47.556;18.718;2022-08-20T09:24:48;99373.00;;;19.36;100.00
51243;BME280;37812;47.556;18.718;2022-08-20T09:27:14;99351.94;;;19.47;100.00
51243;BME280;37812;47.556;18.718;2022-08-20T09:29:40;99344.06;;;19.50;100.00
51243;BME280;37812;47.556;18.718;2022-08-20T09:32:12;99354.56;;;19.47;100.00
51243;BME280;37812;47.556;18.718;2022-08-20T09:34:42;99366.84;;;19.40;100.00
51243;BME280;37812;47.556;18.718;2022-08-20T09:37:08;99370.38;;;19.32;100.00
51243;BME280;37812;47.556;18.718;2022-08-20T09:39:35;99371.28;;;19.26;100.00
51243;BME280;37812;47.556;18.718;2022-08-20T09:42:11;99371.28;;;19.23;100.00
51243;BME280;37812;47.556;18.718;2022-08-20T09:44:38;99386.19;;;19.20;100.00
51243;BME280;37812;47.556;18.718;2022-08-20T09:47:04;99396.66;;;19.16;100.00
51243;BME280;37812;47.556;18.718;2022-08-20T09:49:30;99397.53;;;19.15;100.00
51243;BME280;37812;47.556;18.718;2022-08-20T09:51:56;99403.69;;;19.17;100.00
51243;BME280;37812;47.556;18.718;2022-08-20T09:54:27;99408.03;;;19.19;100.00
51243;BME280;37812;47.556;18.718;2022-08-20T09:56:59;99403.69;;;19.17;100.00
51243;BME280;37812;47.556;18.718;2022-08-20T09:59:30;99411.53;;;19.17;100.00
51243;BME280;37812;47.556;18.718;2022-08-20T10:01:57;99408.94;;;19.13;100.00
51243;BME280;37812;47.556;18.718;2022-08-20T10:04:23;99401.94;;;19.07;100.00
51243;BME280;37812;47.556;18.718;2022-08-20T10:06:49;99396.72;;;19.04;100.00
51243;BME280;37812;47.556;18.718;2022-08-20T10:09:17;99394.13;;;18.92;100.00
51243;BME280;37812;47.556;18.718;2022-08-20T10:11:44;99388.03;;;18.87;100.00
51243;BME280;37812;47.556;18.718;2022-08-20T10:14:10;99388.91;;;18.83;100.00
51243;BME280;37812;47.556;18.718;2022-08-20T10:16:36;99370.56;;;18.80;100.00
51243;BME280;37812;47.556;18.718;2022-08-20T10:19:03;99353.97;;;18.81;100.00
51243;BME280;37812;47.556;18.718;2022-08-20T10:21:31;99340.84;;;18.84;100.00
51243;BME280;37812;47.556;18.718;2022-08-20T10:23:57;99323.34;;;18.86;100.00
51243;BME280;37812;47.556;18.718;2022-08-20T10:26:24;99308.47;;;18.93;100.00
51243;BME280;37812;47.556;18.718;2022-08-20T10:28:50;99293.56;;;19.05;100.00
51243;BME280;37812;47.556;18.718;2022-08-20T10:31:16;99292.66;;;19.17;100.00
51243;BME280;37812;47.556;18.718;2022-08-20T10:33:42;99291.66;;;19.35;100.00
51243;BME280;37812;47.556;18.718;2022-08-20T10:36:14;99301.91;;;19.78;100.00
51243;BME280;37812;47.556;18.718;2022-08-20T10:38:42;99318.91;;;20.40;100.00
51243;BME280;37812;47.556;18.718;2022-08-20T10:41:08;99342.19;;;20.76;100.00
51243;BME280;37812;47.556;18.718;2022-08-20T10:43:34;99364.47;;;21.25;100.00
51243;BME280;37812;47.556;18.718;2022-08-20T10:46:00;99369.25;;;21.63;100.00
51243;BME280;37812;47.556;18.718;2022-08-20T10:48:26;99364.25;;;21.42;100.00
51243;BME280;37812;47.556;18.718;2022-08-20T10:51:03;99350.38;;;22.46;98.21
51243;BME280;37812;47.556;18.718;2022-08-20T10:53:31;99334.56;;;22.95;92.03
51243;BME280;37812;47.556;18.718;2022-08-20T10:55:57;99316.88;;;23.41;90.25
51243;BME280;37812;47.556;18.718;2022-08-20T10:58:24;99311.66;;;23.38;90.98
51243;BME280;37812;47.556;18.718;2022-08-20T11:00:51;99303.56;;;23.05;92.19
51243;BME280;37812;47.556;18.718;2022-08-20T11:03:17;99312.66;;;22.90;93.39
51243;BME280;37812;47.556;18.718;2022-08-20T11:05:43;99333.88;;;22.83;93.36
51243;BME280;37812;47.556;18.718;2022-08-20T11:08:10;99353.37;;;22.26;95.10
51243;BME280;37812;47.556;18.718;2022-08-20T11:10:36;99369.00;;;21.80;98.21
51243;BME280;37812;47.556;18.718;2022-08-20T11:13:05;99374.44;;;21.68;100.00
51243;BME280;37812;47.556;18.718;2022-08-20T11:15:33;99386.09;;;22.13;100.00
51243;BME280;37812;47.556;18.718;2022-08-20T11:18:01;99390.22;;;22.29;96.73
51243;BME280;37812;47.556;18.718;2022-08-20T11:20:30;99404.69;;;22.58;94.63
51243;BME280;37812;47.556;18.718;2022-08-20T11:22:57;99404.47;;;22.70;92.98
51243;BME280;37812;47.556;18.718;2022-08-20T11:25:35;99396.16;;;22.94;92.08
51243;BME280;37812;47.556;18.718;2022-08-20T11:28:02;99385.41;;;23.03;91.19
51243;BME280;37812;47.556;18.718;2022-08-20T11:30:31;99391.28;;;23.18;89.25
51243;BME280;37812;47.556;18.718;2022-08-20T11:32:59;99391.87;;;23.32;87.06
51243;BME280;37812;47.556;18.718;2022-08-20T11:35:26;99389.25;;;23.74;87.77
51243;BME280;37812;47.556;18.718;2022-08-20T11:37:54;99390.41;;;23.99;85.28
51243;BME280;37812;47.556;18.718;2022-08-20T11:40:21;99385.03;;;24.41;84.23
51243;BME280;37812;47.556;18.718;2022-08-20T11:42:47;99384.84;;;24.49;83.81
51243;BME280;37812;47.556;18.718;2022-08-20T11:45:13;99387.28;;;23.82;86.48
51243;BME280;37812;47.556;18.718;2022-08-20T11:47:39;99387.25;;;23.85;86.08
51243;BME280;37812;47.556;18.718;2022-08-20T11:50:09;99381.00;;;24.25;86.12
51243;BME280;37812;47.556;18.718;2022-08-20T11:52:37;99382.88;;;24.20;86.43
51243;BME280;37812;47.556;18.718;2022-08-20T11:55:04;99365.75;;;24.00;85.04
51243;BME280;37812;47.556;18.718;2022-08-20T11:57:33;99371.22;;;23.91;84.42
51243;BME280;37812;47.556;18.718;2022-08-20T12:00:03;99372.44;;;23.76;83.12
51243;BME280;37812;47.556;18.718;2022-08-20T12:02:29;99368.81;;;23.40;86.21
51243;BME280;37812;47.556;18.718;2022-08-20T12:04:55;99363.47;;;23.43;86.12
51243;BME280;37812;47.556;18.718;2022-08-20T12:07:23;99359.50;;;23.22;85.83
51243;BME280;37812;47.556;18.718;2022-08-20T12:09:50;99356.78;;;23.27;86.82
51243;BME280;37812;47.556;18.718;2022-08-20T12:12:17;99355.03;;;23.26;85.93
51243;BME280;37812;47.556;18.718;2022-08-20T12:14:43;99356.97;;;23.58;85.61
51243;BME280;37812;47.556;18.718;2022-08-20T12:17:12;99354.28;;;23.63;85.59
51243;BME280;37812;47.556;18.718;2022-08-20T12:19:40;99349.28;;;23.49;84.70
51243;BME280;37812;47.556;18.718;2022-08-20T12:22:07;99340.41;;;23.51;88.11
51243;BME280;37812;47.556;18.718;2022-08-20T12:24:35;99336.41;;;23.74;86.27
51243;BME280;37812;47.556;18.718;2022-08-20T12:27:17;99329.25;;;23.79;83.96
51243;BME280;37812;47.556;18.718;2022-08-20T12:29:46;99323.47;;;23.63;86.56
51243;BME280;37812;47.556;18.718;2022-08-20T12:32:13;99316.09;;;23.77;84.74
51243;BME280;37812;47.556;18.718;2022-08-20T12:34:41;99310.38;;;23.94;82.58
51243;BME280;37812;47.556;18.718;2022-08-20T12:37:11;99311.81;;;23.72;83.47
51243;BME280;37812;47.556;18.718;2022-08-20T12:39:39;99314.91;;;23.50;84.23
51243;BME280;37812;47.556;18.718;2022-08-20T12:42:07;99316.31;;;23.67;84.31
51243;BME280;37812;47.556;18.718;2022-08-20T12:44:34;99305.88;;;23.61;84.67
51243;BME280;37812;47.556;18.718;2022-08-20T12:49:33;99296.75;;;23.75;80.88
51243;BME280;37812;47.556;18.718;2022-08-20T12:51:59;99286.16;;;23.75;81.33
51243;BME280;37812;47.556;18.718;2022-08-20T12:54:25;99290.69;;;23.72;83.34
51243;BME280;37812;47.556;18.718;2022-08-20T12:56:51;99278.84;;;23.49;84.13